createdAt,value
2023-02-28T00:03:43.900Z,0.12
2023-02-28T00:08:45.672Z,0.24
2023-02-28T00:13:48.683Z,0.03
2023-02-28T00:18:51.415Z,0.22
2023-02-28T00:23:53.068Z,0.15
2023-02-28T00:28:54.741Z,0.16
2023-02-28T00:33:57.959Z,0.06
2023-02-28T00:38:59.567Z,0.28
2023-02-28T00:44:03.309Z,0.12
2023-02-28T00:49:07.471Z,0.09
2023-02-28T00:54:10.979Z,0.33
2023-02-28T00:59:16.903Z,0.18
2023-02-28T01:04:20.291Z,0.02
2023-02-28T01:09:21.934Z,0.07
2023-02-28T01:14:23.551Z,-0.05
2023-02-28T01:19:25.889Z,0.05
2023-02-28T01:24:27.549Z,-0.02
2023-02-28T01:29:29.168Z,0.17
2023-02-28T01:34:30.821Z,0.08
2023-02-28T01:39:32.465Z,-0.15
2023-02-28T01:45:01.107Z,-0.12
2023-02-28T01:50:08.585Z,-0.16
2023-02-28T01:55:12.204Z,-0.32
2023-02-28T02:00:20.680Z,-0.44
2023-02-28T02:05:28.177Z,-0.64
2023-02-28T02:10:37.374Z,-0.58
2023-02-28T02:16:13.815Z,-0.79
2023-02-28T02:21:36.668Z,-0.58
2023-02-28T02:27:09.746Z,-0.48
2023-02-28T02:32:39.133Z,-0.41
2023-02-28T02:37:58.262Z,-0.48
2023-02-28T02:43:07.985Z,-0.54
2023-02-28T02:48:14.165Z,-0.34
2023-02-28T02:53:20.056Z,-0.33
2023-02-28T02:58:28.223Z,-0.31
2023-02-28T03:09:58.522Z,-0.29
2023-02-28T03:15:25.712Z,-0.35
2023-02-28T03:20:55.787Z,-0.37
2023-02-28T03:26:05.245Z,-0.43
2023-02-28T03:31:18.912Z,-0.60
2023-02-28T03:36:24.058Z,-0.70
2023-02-28T03:41:37.161Z,-0.77
2023-02-28T03:46:44.867Z,-0.80
2023-02-28T03:51:48.316Z,-0.96
2023-02-28T03:56:56.508Z,-1.13
2023-02-28T04:01:59.691Z,-1.14
2023-02-28T04:07:09.353Z,-1.07
2023-02-28T04:12:11.069Z,-1.23
2023-02-28T04:17:12.671Z,-1.44
2023-02-28T04:22:14.729Z,-1.64
2023-02-28T04:27:16.857Z,-1.57
2023-02-28T04:32:18.746Z,-1.75
2023-02-28T04:37:20.630Z,-1.92
2023-02-28T04:42:22.324Z,-2.18
2023-02-28T04:47:23.921Z,-2.29
2023-02-28T04:52:25.547Z,-2.15
2023-02-28T04:57:27.153Z,-2.23
2023-02-28T05:02:28.880Z,-2.36
2023-02-28T05:07:30.592Z,-2.42
2023-02-28T05:12:32.189Z,-2.34
2023-02-28T05:17:33.800Z,-2.51
2023-02-28T05:22:35.464Z,-2.49
2023-02-28T05:27:37.111Z,-2.58
2023-02-28T05:32:39.953Z,-2.74
2023-02-28T05:37:41.654Z,-2.60
2023-02-28T05:42:43.325Z,-2.71
2023-02-28T05:47:44.980Z,-2.79
2023-02-28T05:52:51.295Z,-2.73
2023-02-28T05:57:52.922Z,-2.78
2023-02-28T06:02:57.317Z,-2.80
2023-02-28T06:07:58.936Z,-2.82
2023-02-28T06:13:03.485Z,-2.79
2023-02-28T06:18:05.389Z,-2.66
2023-02-28T06:23:06.993Z,-2.45
2023-02-28T06:28:08.646Z,-2.63
2023-02-28T06:33:10.282Z,-2.50
2023-02-28T06:38:11.931Z,-2.58
2023-02-28T06:43:14.500Z,-1.64
2023-02-28T06:48:16.131Z,-0.22
2023-02-28T06:53:17.785Z,-0.13
2023-02-28T06:58:20.028Z,0.46
2023-02-28T07:03:21.763Z,1.00
2023-02-28T07:08:24.711Z,2.51
2023-02-28T07:13:26.405Z,2.29
2023-02-28T07:18:28.852Z,2.05
2023-02-28T07:23:30.801Z,1.02
2023-02-28T07:28:32.436Z,0.44
2023-02-28T07:33:35.103Z,0.42
2023-02-28T07:38:38.444Z,2.30
2023-02-28T07:43:40.124Z,5.87
2023-02-28T07:48:42.249Z,5.33
2023-02-28T07:53:43.937Z,4.06
2023-02-28T07:58:45.581Z,2.72
2023-02-28T08:03:47.251Z,4.63
2023-02-28T08:08:49.841Z,4.67
2023-02-28T08:13:51.878Z,3.32
2023-02-28T08:18:54.099Z,4.01
2023-02-28T08:23:57.808Z,8.23
2023-02-28T08:29:01.434Z,10.77
2023-02-28T08:34:21.410Z,8.88
2023-02-28T08:39:23.042Z,9.77
2023-02-28T08:44:24.655Z,9.18
2023-02-28T08:49:26.307Z,5.74
2023-02-28T08:54:31.699Z,3.92
2023-02-28T08:59:33.684Z,4.05
2023-02-28T09:04:35.328Z,4.53
2023-02-28T09:09:36.935Z,5.17
2023-02-28T09:14:38.514Z,4.69
2023-02-28T09:19:40.423Z,5.43
2023-02-28T09:24:42.309Z,5.28
2023-02-28T09:29:44.025Z,6.97
2023-02-28T09:34:45.645Z,6.80
2023-02-28T09:39:47.263Z,8.06
2023-02-28T09:44:51.378Z,8.89
2023-02-28T09:49:53.653Z,7.17
2023-02-28T09:54:55.938Z,7.93
2023-02-28T10:00:45.007Z,8.74
2023-02-28T10:05:55.549Z,8.66
2023-02-28T10:11:05.424Z,8.90
2023-02-28T10:16:21.158Z,7.93
2023-02-28T10:21:29.375Z,7.99
2023-02-28T10:26:33.900Z,5.85
2023-02-28T10:31:36.125Z,4.08
2023-02-28T10:36:37.812Z,3.87
2023-02-28T10:41:43.710Z,2.66
2023-02-28T10:46:46.484Z,3.44
2023-02-28T10:51:52.630Z,5.00
2023-02-28T10:57:18.776Z,5.73
2023-02-28T11:07:53.001Z,7.99
2023-02-28T11:13:00.576Z,8.62
2023-02-28T11:18:24.484Z,9.25
2023-02-28T11:23:29.954Z,8.75
2023-02-28T11:28:38.032Z,7.95
2023-02-28T11:33:55.423Z,5.84
2023-02-28T11:39:05.572Z,4.84
2023-02-28T11:44:37.910Z,7.19
2023-02-28T11:50:07.040Z,7.98
2023-02-28T11:55:32.847Z,9.06
2023-02-28T12:00:59.754Z,10.67
2023-02-28T12:06:18.734Z,9.71
2023-02-28T12:11:41.879Z,10.33
2023-02-28T12:17:08.289Z,10.20
2023-02-28T12:22:20.235Z,12.20
2023-02-28T12:27:27.805Z,11.76
2023-02-28T12:32:47.980Z,8.83
2023-02-28T12:38:03.076Z,10.59
2023-02-28T12:43:08.612Z,11.20
2023-02-28T12:48:15.744Z,10.33
2023-02-28T12:53:47.770Z,9.37
2023-02-28T12:58:55.518Z,8.50
2023-02-28T13:04:48.610Z,11.22
2023-02-28T13:10:01.789Z,9.67
2023-02-28T13:15:16.124Z,9.62
2023-02-28T13:20:24.481Z,9.19
2023-02-28T13:25:26.041Z,8.42
2023-02-28T13:31:00.650Z,6.66
2023-02-28T13:36:15.354Z,9.04
2023-02-28T13:41:32.473Z,7.70
2023-02-28T13:46:58.146Z,6.23
2023-02-28T13:52:09.698Z,6.99
2023-02-28T13:57:50.294Z,5.83
2023-02-28T14:03:04.437Z,8.12
2023-02-28T14:08:24.015Z,7.67
2023-02-28T14:13:28.683Z,6.27
2023-02-28T14:18:36.379Z,6.98
2023-02-28T14:23:56.773Z,6.26
2023-02-28T14:29:04.855Z,7.04
2023-02-28T14:34:32.920Z,6.27
2023-02-28T14:39:35.530Z,5.72
2023-02-28T14:44:37.323Z,6.46
2023-02-28T14:49:46.631Z,6.01
2023-02-28T14:54:54.884Z,6.09
2023-02-28T15:00:13.225Z,4.84
2023-02-28T15:05:17.641Z,4.01
2023-02-28T15:10:24.195Z,3.97
2023-02-28T15:16:02.051Z,3.86
2023-02-28T15:21:08.775Z,3.50
2023-02-28T15:26:18.161Z,3.76
2023-02-28T15:31:24.600Z,3.63
2023-02-28T15:36:31.027Z,3.48
2023-02-28T15:41:41.674Z,3.30
2023-02-28T15:46:54.516Z,2.98
2023-02-28T15:52:00.362Z,3.04
2023-02-28T15:57:09.527Z,3.25
2023-02-28T16:02:11.219Z,3.03
2023-02-28T16:07:14.062Z,2.88
2023-02-28T16:12:15.710Z,3.01
2023-02-28T16:17:29.358Z,2.85
2023-02-28T16:22:31.073Z,2.40
2023-02-28T16:27:36.546Z,2.09
2023-02-28T16:32:38.214Z,1.95
2023-02-28T16:37:39.876Z,2.08
2023-02-28T16:42:42.034Z,1.80
2023-02-28T16:47:43.702Z,1.51
2023-02-28T16:52:45.511Z,1.45
2023-02-28T16:57:56.194Z,1.14
2023-02-28T17:02:58.495Z,0.97
2023-02-28T17:08:00.203Z,0.78
2023-02-28T17:13:14.153Z,0.84
2023-02-28T17:18:19.944Z,0.71
2023-02-28T17:23:21.568Z,0.48
2023-02-28T17:28:23.211Z,0.34
2023-02-28T17:33:24.927Z,0.33
2023-02-28T17:38:26.547Z,0.27
2023-02-28T17:43:28.353Z,0.24
2023-02-28T17:48:31.389Z,0.16
2023-02-28T17:53:33.607Z,0.17
2023-02-28T17:58:35.259Z,0.04
2023-02-28T18:03:36.918Z,0.02
2023-02-28T18:08:38.549Z,-0.15
2023-02-28T18:13:40.163Z,-0.25
2023-02-28T18:18:42.344Z,-0.30
2023-02-28T18:23:52.087Z,-0.41
2023-02-28T18:28:53.671Z,-0.46
2023-02-28T18:33:55.283Z,-0.45
2023-02-28T18:38:56.896Z,-0.37
2023-02-28T18:44:07.731Z,-0.47
2023-02-28T18:49:15.630Z,-0.65
2023-02-28T18:54:17.702Z,-0.67
2023-02-28T18:59:19.311Z,-0.89
2023-02-28T19:04:21.033Z,-0.86
2023-02-28T19:09:22.861Z,-0.92
2023-02-28T19:14:24.511Z,-1.06
2023-02-28T19:19:26.209Z,-0.85
2023-02-28T19:24:27.811Z,-0.80
2023-02-28T19:29:29.411Z,-1.02
2023-02-28T19:34:31.047Z,-1.22
2023-02-28T19:39:41.125Z,-1.35
2023-02-28T19:44:43.241Z,-1.30
2023-02-28T19:49:44.906Z,-1.30
2023-02-28T19:54:46.509Z,-1.31
2023-02-28T19:59:48.308Z,-1.31
2023-02-28T20:04:51.125Z,-1.35
2023-02-28T20:09:52.989Z,-1.41
2023-02-28T20:14:58.202Z,-1.26
2023-02-28T20:19:59.903Z,-1.26
2023-02-28T20:25:01.546Z,-1.22
2023-02-28T20:30:04.299Z,-0.93
2023-02-28T20:35:08.671Z,-1.20
2023-02-28T20:40:10.959Z,-1.37
2023-02-28T20:45:12.600Z,-1.42
2023-02-28T20:50:14.206Z,-1.60
2023-02-28T20:55:15.917Z,-1.68
2023-02-28T21:00:20.605Z,-1.69
2023-02-28T21:05:22.223Z,-1.73
2023-02-28T21:10:23.832Z,-1.79
2023-02-28T21:15:25.927Z,-1.57
2023-02-28T21:20:28.127Z,-1.70
2023-02-28T21:25:29.743Z,-1.95
2023-02-28T21:30:31.433Z,-2.17
2023-02-28T21:35:33.084Z,-2.07
2023-02-28T21:40:34.771Z,-2.18
2023-02-28T21:45:36.456Z,-2.12
2023-02-28T21:50:38.072Z,-2.30
2023-02-28T21:55:39.710Z,-2.37
2023-02-28T22:00:46.030Z,-2.39
2023-02-28T22:05:47.619Z,-2.35
2023-02-28T22:10:49.230Z,-2.42
2023-02-28T22:15:50.850Z,-2.40
2023-02-28T22:20:55.905Z,-2.62
2023-02-28T22:26:00.823Z,-2.62
2023-02-28T22:31:13.341Z,-2.68
2023-02-28T22:36:16.709Z,-2.60
2023-02-28T22:41:20.514Z,-2.80
2023-02-28T22:46:24.151Z,-2.90
2023-02-28T22:51:27.102Z,-2.89
2023-02-28T22:56:30.590Z,-2.94
2023-02-28T23:01:34.500Z,-2.90
2023-02-28T23:06:42.047Z,-2.85
2023-02-28T23:11:47.427Z,-2.85
2023-02-28T23:16:51.704Z,-2.95
2023-02-28T23:21:53.903Z,-2.99
2023-02-28T23:26:58.686Z,-3.02
2023-02-28T23:32:00.449Z,-3.23
2023-02-28T23:37:02.708Z,-3.29
2023-02-28T23:42:04.337Z,-3.31
2023-02-28T23:47:06.476Z,-3.32
2023-02-28T23:52:08.257Z,-3.42
2023-02-28T23:57:09.919Z,-3.46
